Terminal Aerodrome Forecast
Issued by NWS

Home | Current Version | Previous Version | Text Only | Print | Product List | Glossary On
Versions: 1 2 3 4 5 6 7 8 9 10 11 12 13 14 15 16 17 18 19 20 21 22 23 24 25 26
088
FTUS45 KTFX 222320
TAFGTF
TAF
KGTF 222320Z 2300/2324 22011KT P6SM FEW090 SCT200
     FM230400 20007KT P6SM SCT050 BKN090 PROB30 2309/2312 -SHRA
      BKN050
     FM231500 23015G25KT P6SM SCT050=

USA.gov is the U.S. government's official web portal to all federal, state and local government web resources and services.